sensor_id;sensor_type;location;lat;lon;timestamp;temperature;humidity
16532;DHT22;66872;63.142;14.482;2023-04-03T00:01:32;13.50;1.00
16532;DHT22;66872;63.142;14.482;2023-04-03T00:03:57;13.50;1.00
16532;DHT22;66872;63.142;14.482;2023-04-03T00:06:23;13.50;1.00
16532;DHT22;66872;63.142;14.482;2023-04-03T00:08:50;13.50;1.00
16532;DHT22;66872;63.142;14.482;2023-04-03T00:11:16;13.50;1.00
16532;DHT22;66872;63.142;14.482;2023-04-03T00:13:43;13.50;1.00
16532;DHT22;66872;63.142;14.482;2023-04-03T00:16:09;13.50;1.00
16532;DHT22;66872;63.142;14.482;2023-04-03T00:18:36;13.50;1.00
16532;DHT22;66872;63.142;14.482;2023-04-03T00:21:02;13.50;1.00
16532;DHT22;66872;63.142;14.482;2023-04-03T00:23:28;13.40;1.00
16532;DHT22;66872;63.142;14.482;2023-04-03T00:25:54;13.40;1.00
16532;DHT22;66872;63.142;14.482;2023-04-03T00:28:20;13.40;1.00
16532;DHT22;66872;63.142;14.482;2023-04-03T00:30:46;13.40;1.00
16532;DHT22;66872;63.142;14.482;2023-04-03T00:33:13;13.40;1.00
16532;DHT22;66872;63.142;14.482;2023-04-03T00:35:39;13.40;1.00
16532;DHT22;66872;63.142;14.482;2023-04-03T00:38:05;13.40;1.00
16532;DHT22;66872;63.142;14.482;2023-04-03T00:40:36;13.40;1.00
16532;DHT22;66872;63.142;14.482;2023-04-03T00:43:10;13.40;1.00
16532;DHT22;66872;63.142;14.482;2023-04-03T00:45:39;13.40;1.00
16532;DHT22;66872;63.142;14.482;2023-04-03T00:48:07;13.30;1.00
16532;DHT22;66872;63.142;14.482;2023-04-03T00:50:36;13.30;1.00
16532;DHT22;66872;63.142;14.482;2023-04-03T00:53:04;13.30;1.00
16532;DHT22;66872;63.142;14.482;2023-04-03T00:55:30;13.30;1.00
16532;DHT22;66872;63.142;14.482;2023-04-03T00:57:57;13.30;1.00
16532;DHT22;66872;63.142;14.482;2023-04-03T01:00:24;13.30;1.00
16532;DHT22;66872;63.142;14.482;2023-04-03T01:02:51;13.30;1.00
16532;DHT22;66872;63.142;14.482;2023-04-03T01:05:18;13.30;1.00
16532;DHT22;66872;63.142;14.482;2023-04-03T01:07:45;13.30;1.00
16532;DHT22;66872;63.142;14.482;2023-04-03T01:10:13;13.30;1.00
16532;DHT22;66872;63.142;14.482;2023-04-03T01:12:42;13.20;1.00
16532;DHT22;66872;63.142;14.482;2023-04-03T01:15:14;13.20;1.00
16532;DHT22;66872;63.142;14.482;2023-04-03T01:17:44;13.20;1.00
16532;DHT22;66872;63.142;14.482;2023-04-03T01:23:12;13.20;1.00
16532;DHT22;66872;63.142;14.482;2023-04-03T01:25:50;13.20;1.00
16532;DHT22;66872;63.142;14.482;2023-04-03T01:28:27;13.20;1.00
16532;DHT22;66872;63.142;14.482;2023-04-03T01:31:10;13.20;1.00
16532;DHT22;66872;63.142;14.482;2023-04-03T01:33:38;13.20;1.00
16532;DHT22;66872;63.142;14.482;2023-04-03T01:36:04;13.20;1.00
16532;DHT22;66872;63.142;14.482;2023-04-03T01:38:31;13.20;1.00
16532;DHT22;66872;63.142;14.482;2023-04-03T01:40:56;13.20;1.00
16532;DHT22;66872;63.142;14.482;2023-04-03T01:43:22;13.10;1.00
16532;DHT22;66872;63.142;14.482;2023-04-03T01:45:48;13.10;1.00
16532;DHT22;66872;63.142;14.482;2023-04-03T01:48:19;13.10;1.00
16532;DHT22;66872;63.142;14.482;2023-04-03T01:50:45;13.10;1.00
16532;DHT22;66872;63.142;14.482;2023-04-03T01:53:11;13.10;1.00
16532;DHT22;66872;63.142;14.482;2023-04-03T01:55:37;13.10;1.00
16532;DHT22;66872;63.142;14.482;2023-04-03T01:58:03;13.10;1.00
16532;DHT22;66872;63.142;14.482;2023-04-03T02:00:28;13.10;1.00
16532;DHT22;66872;63.142;14.482;2023-04-03T02:02:55;13.10;1.00
16532;DHT22;66872;63.142;14.482;2023-04-03T02:05:21;13.10;1.00
16532;DHT22;66872;63.142;14.482;2023-04-03T02:07:46;13.00;1.00
16532;DHT22;66872;63.142;14.482;2023-04-03T02:10:13;13.00;1.00
16532;DHT22;66872;63.142;14.482;2023-04-03T02:12:39;13.00;1.00
16532;DHT22;66872;63.142;14.482;2023-04-03T02:15:05;13.00;1.00
16532;DHT22;66872;63.142;14.482;2023-04-03T02:17:30;13.00;1.00
16532;DHT22;66872;63.142;14.482;2023-04-03T02:19:56;13.00;1.00
16532;DHT22;66872;63.142;14.482;2023-04-03T02:22:22;13.00;1.00
16532;DHT22;66872;63.142;14.482;2023-04-03T02:24:47;13.00;1.00
16532;DHT22;66872;63.142;14.482;2023-04-03T02:27:13;12.90;1.00
16532;DHT22;66872;63.142;14.482;2023-04-03T02:29:39;12.90;1.00
16532;DHT22;66872;63.142;14.482;2023-04-03T02:32:05;12.90;1.00
16532;DHT22;66872;63.142;14.482;2023-04-03T02:34:30;12.90;1.00
16532;DHT22;66872;63.142;14.482;2023-04-03T02:36:56;12.90;1.00
16532;DHT22;66872;63.142;14.482;2023-04-03T02:39:22;12.90;1.00
16532;DHT22;66872;63.142;14.482;2023-04-03T02:41:47;12.90;1.00
16532;DHT22;66872;63.142;14.482;2023-04-03T02:44:13;12.90;1.00
16532;DHT22;66872;63.142;14.482;2023-04-03T02:46:39;12.90;1.00
16532;DHT22;66872;63.142;14.482;2023-04-03T02:49:05;12.90;1.00
16532;DHT22;66872;63.142;14.482;2023-04-03T02:51:31;12.90;1.00
16532;DHT22;66872;63.142;14.482;2023-04-03T02:53:56;12.80;1.00
16532;DHT22;66872;63.142;14.482;2023-04-03T02:56:22;12.80;1.00
16532;DHT22;66872;63.142;14.482;2023-04-03T02:58:48;12.80;1.00
16532;DHT22;66872;63.142;14.482;2023-04-03T03:01:14;12.80;1.00
16532;DHT22;66872;63.142;14.482;2023-04-03T03:03:39;12.80;1.00
16532;DHT22;66872;63.142;14.482;2023-04-03T03:06:08;12.80;1.00
16532;DHT22;66872;63.142;14.482;2023-04-03T03:08:35;12.80;1.00
16532;DHT22;66872;63.142;14.482;2023-04-03T03:11:01;12.80;1.00
16532;DHT22;66872;63.142;14.482;2023-04-03T03:13:26;12.80;1.00
16532;DHT22;66872;63.142;14.482;2023-04-03T03:15:52;12.70;1.00
16532;DHT22;66872;63.142;14.482;2023-04-03T03:18:18;12.70;1.00
16532;DHT22;66872;63.142;14.482;2023-04-03T03:20:44;12.70;1.00
16532;DHT22;66872;63.142;14.482;2023-04-03T03:23:09;12.70;1.00
16532;DHT22;66872;63.142;14.482;2023-04-03T03:25:39;12.70;1.00
16532;DHT22;66872;63.142;14.482;2023-04-03T03:28:05;12.70;1.00
16532;DHT22;66872;63.142;14.482;2023-04-03T03:30:31;12.70;1.00
16532;DHT22;66872;63.142;14.482;2023-04-03T03:32:57;12.70;1.00
16532;DHT22;66872;63.142;14.482;2023-04-03T03:35:23;12.70;1.00
16532;DHT22;66872;63.142;14.482;2023-04-03T03:37:49;12.70;1.00
16532;DHT22;66872;63.142;14.482;2023-04-03T03:40:14;12.70;1.00
16532;DHT22;66872;63.142;14.482;2023-04-03T03:42:40;12.70;1.00
16532;DHT22;66872;63.142;14.482;2023-04-03T03:45:06;12.60;1.00
16532;DHT22;66872;63.142;14.482;2023-04-03T03:47:32;12.60;1.00
16532;DHT22;66872;63.142;14.482;2023-04-03T03:49:58;12.60;1.00
16532;DHT22;66872;63.142;14.482;2023-04-03T03:52:25;12.60;1.00
16532;DHT22;66872;63.142;14.482;2023-04-03T03:54:51;12.60;1.00
16532;DHT22;66872;63.142;14.482;2023-04-03T03:57:17;12.60;1.00
16532;DHT22;66872;63.142;14.482;2023-04-03T03:59:43;12.60;1.00
16532;DHT22;66872;63.142;14.482;2023-04-03T04:02:10;12.60;1.00
16532;DHT22;66872;63.142;14.482;2023-04-03T04:04:36;12.60;1.00
16532;DHT22;66872;63.142;14.482;2023-04-03T04:07:03;12.60;1.00
16532;DHT22;66872;63.142;14.482;2023-04-03T04:09:29;12.60;1.00
16532;DHT22;66872;63.142;14.482;2023-04-03T04:11:55;12.60;1.00
16532;DHT22;66872;63.142;14.482;2023-04-03T04:14:21;12.60;1.00
16532;DHT22;66872;63.142;14.482;2023-04-03T04:16:47;12.60;1.00
16532;DHT22;66872;63.142;14.482;2023-04-03T04:19:13;12.50;1.00
16532;DHT22;66872;63.142;14.482;2023-04-03T04:21:39;12.50;1.00
16532;DHT22;66872;63.142;14.482;2023-04-03T04:24:05;12.50;1.00
16532;DHT22;66872;63.142;14.482;2023-04-03T04:26:31;12.50;1.00
16532;DHT22;66872;63.142;14.482;2023-04-03T04:28:57;12.50;1.00
16532;DHT22;66872;63.142;14.482;2023-04-03T04:31:22;12.50;1.00
16532;DHT22;66872;63.142;14.482;2023-04-03T04:33:48;12.50;1.00
16532;DHT22;66872;63.142;14.482;2023-04-03T04:36:14;12.50;1.00
16532;DHT22;66872;63.142;14.482;2023-04-03T04:38:40;12.50;1.00
16532;DHT22;66872;63.142;14.482;2023-04-03T04:41:06;12.50;1.00
16532;DHT22;66872;63.142;14.482;2023-04-03T04:43:32;12.50;1.00
16532;DHT22;66872;63.142;14.482;2023-04-03T04:46:06;12.50;1.00
16532;DHT22;66872;63.142;14.482;2023-04-03T04:48:33;12.50;1.00
16532;DHT22;66872;63.142;14.482;2023-04-03T04:50:59;12.50;1.00
16532;DHT22;66872;63.142;14.482;2023-04-03T04:53:25;12.50;1.00
16532;DHT22;66872;63.142;14.482;2023-04-03T04:55:51;12.50;1.00
16532;DHT22;66872;63.142;14.482;2023-04-03T04:58:17;12.50;1.00
16532;DHT22;66872;63.142;14.482;2023-04-03T05:00:43;12.50;1.00
16532;DHT22;66872;63.142;14.482;2023-04-03T05:03:08;12.50;1.00
16532;DHT22;66872;63.142;14.482;2023-04-03T05:05:34;12.50;1.00
16532;DHT22;66872;63.142;14.482;2023-04-03T05:08:01;12.50;1.00
16532;DHT22;66872;63.142;14.482;2023-04-03T05:10:27;12.50;1.00
16532;DHT22;66872;63.142;14.482;2023-04-03T05:12:53;12.50;1.00
16532;DHT22;66872;63.142;14.482;2023-04-03T05:15:18;12.50;1.00
16532;DHT22;66872;63.142;14.482;2023-04-03T05:17:44;12.50;1.00
16532;DHT22;66872;63.142;14.482;2023-04-03T05:20:10;12.50;1.00
16532;DHT22;66872;63.142;14.482;2023-04-03T05:22:36;12.50;1.00
16532;DHT22;66872;63.142;14.482;2023-04-03T05:25:01;12.50;1.00
16532;DHT22;66872;63.142;14.482;2023-04-03T05:27:27;12.50;1.00
16532;DHT22;66872;63.142;14.482;2023-04-03T05:29:54;12.40;1.00
16532;DHT22;66872;63.142;14.482;2023-04-03T05:32:21;12.50;1.00
16532;DHT22;66872;63.142;14.482;2023-04-03T05:34:47;12.50;1.00
16532;DHT22;66872;63.142;14.482;2023-04-03T05:37:13;12.50;1.00
16532;DHT22;66872;63.142;14.482;2023-04-03T05:39:38;12.50;1.00
16532;DHT22;66872;63.142;14.482;2023-04-03T05:42:06;12.50;1.00
16532;DHT22;66872;63.142;14.482;2023-04-03T05:44:32;12.50;1.00
16532;DHT22;66872;63.142;14.482;2023-04-03T05:46:58;12.50;1.00
16532;DHT22;66872;63.142;14.482;2023-04-03T05:49:24;12.50;1.00
16532;DHT22;66872;63.142;14.482;2023-04-03T05:51:50;12.50;1.00
16532;DHT22;66872;63.142;14.482;2023-04-03T05:54:26;12.50;1.00
16532;DHT22;66872;63.142;14.482;2023-04-03T05:56:52;12.50;1.00
16532;DHT22;66872;63.142;14.482;2023-04-03T05:59:19;12.50;1.00
16532;DHT22;66872;63.142;14.482;2023-04-03T06:01:46;12.50;1.00
16532;DHT22;66872;63.142;14.482;2023-04-03T06:04:12;12.60;1.00
16532;DHT22;66872;63.142;14.482;2023-04-03T06:09:22;12.60;1.00
16532;DHT22;66872;63.142;14.482;2023-04-03T06:11:48;12.60;1.00
16532;DHT22;66872;63.142;14.482;2023-04-03T06:14:14;12.60;1.00
16532;DHT22;66872;63.142;14.482;2023-04-03T06:16:40;12.60;1.00
16532;DHT22;66872;63.142;14.482;2023-04-03T06:19:10;12.70;1.00
16532;DHT22;66872;63.142;14.482;2023-04-03T06:21:36;12.70;1.00
16532;DHT22;66872;63.142;14.482;2023-04-03T06:24:03;12.80;1.00
16532;DHT22;66872;63.142;14.482;2023-04-03T06:26:29;12.90;1.00
16532;DHT22;66872;63.142;14.482;2023-04-03T06:28:54;13.00;1.00
16532;DHT22;66872;63.142;14.482;2023-04-03T06:31:21;13.20;1.00
16532;DHT22;66872;63.142;14.482;2023-04-03T06:33:47;13.50;1.00
16532;DHT22;66872;63.142;14.482;2023-04-03T06:36:12;13.80;1.00
16532;DHT22;66872;63.142;14.482;2023-04-03T06:38:38;14.10;1.00
16532;DHT22;66872;63.142;14.482;2023-04-03T06:41:04;14.40;1.00
16532;DHT22;66872;63.142;14.482;2023-04-03T06:43:30;14.70;1.00
16532;DHT22;66872;63.142;14.482;2023-04-03T06:45:59;15.00;1.00
16532;DHT22;66872;63.142;14.482;2023-04-03T06:48:24;15.20;1.00
16532;DHT22;66872;63.142;14.482;2023-04-03T06:50:50;15.50;1.00
16532;DHT22;66872;63.142;14.482;2023-04-03T06:53:16;15.70;1.00
16532;DHT22;66872;63.142;14.482;2023-04-03T06:55:41;15.80;1.00
16532;DHT22;66872;63.142;14.482;2023-04-03T06:58:07;16.00;1.00
16532;DHT22;66872;63.142;14.482;2023-04-03T07:00:33;16.20;1.00
16532;DHT22;66872;63.142;14.482;2023-04-03T07:02:59;16.30;1.00
16532;DHT22;66872;63.142;14.482;2023-04-03T07:05:25;16.40;1.00
16532;DHT22;66872;63.142;14.482;2023-04-03T07:07:55;16.60;1.00
16532;DHT22;66872;63.142;14.482;2023-04-03T07:10:23;16.70;1.00
16532;DHT22;66872;63.142;14.482;2023-04-03T07:12:49;16.70;1.00
16532;DHT22;66872;63.142;14.482;2023-04-03T07:15:15;16.80;1.00
16532;DHT22;66872;63.142;14.482;2023-04-03T07:17:41;17.00;1.00
16532;DHT22;66872;63.142;14.482;2023-04-03T07:20:07;17.10;1.00
16532;DHT22;66872;63.142;14.482;2023-04-03T07:22:33;17.20;1.00
16532;DHT22;66872;63.142;14.482;2023-04-03T07:24:59;17.20;1.00
16532;DHT22;66872;63.142;14.482;2023-04-03T07:27:25;17.30;1.00
16532;DHT22;66872;63.142;14.482;2023-04-03T07:29:51;17.40;1.00
16532;DHT22;66872;63.142;14.482;2023-04-03T07:32:17;17.40;1.00
16532;DHT22;66872;63.142;14.482;2023-04-03T07:34:43;17.50;1.00
16532;DHT22;66872;63.142;14.482;2023-04-03T07:37:09;17.60;1.00
16532;DHT22;66872;63.142;14.482;2023-04-03T07:39:35;17.60;1.00
16532;DHT22;66872;63.142;14.482;2023-04-03T07:42:01;17.70;1.00
16532;DHT22;66872;63.142;14.482;2023-04-03T07:44:27;17.70;1.00
16532;DHT22;66872;63.142;14.482;2023-04-03T07:46:53;17.60;1.00
16532;DHT22;66872;63.142;14.482;2023-04-03T07:49:21;17.60;1.00
16532;DHT22;66872;63.142;14.482;2023-04-03T07:51:49;17.60;1.00
16532;DHT22;66872;63.142;14.482;2023-04-03T07:54:15;17.60;1.00
16532;DHT22;66872;63.142;14.482;2023-04-03T07:56:41;17.60;1.00
16532;DHT22;66872;63.142;14.482;2023-04-03T07:59:09;17.60;1.00
16532;DHT22;66872;63.142;14.482;2023-04-03T08:01:35;17.60;1.00
16532;DHT22;66872;63.142;14.482;2023-04-03T08:04:00;17.70;1.00
16532;DHT22;66872;63.142;14.482;2023-04-03T08:06:26;17.60;1.00
16532;DHT22;66872;63.142;14.482;2023-04-03T08:08:54;17.60;1.00
16532;DHT22;66872;63.142;14.482;2023-04-03T08:11:20;17.60;1.00
16532;DHT22;66872;63.142;14.482;2023-04-03T08:13:46;17.60;1.00
16532;DHT22;66872;63.142;14.482;2023-04-03T08:16:17;17.60;1.00
16532;DHT22;66872;63.142;14.482;2023-04-03T08:18:43;17.70;1.00
16532;DHT22;66872;63.142;14.482;2023-04-03T08:21:11;17.60;1.00
16532;DHT22;66872;63.142;14.482;2023-04-03T08:23:38;17.60;1.00
16532;DHT22;66872;63.142;14.482;2023-04-03T08:26:15;17.60;1.00
16532;DHT22;66872;63.142;14.482;2023-04-03T08:28:41;17.70;1.00
16532;DHT22;66872;63.142;14.482;2023-04-03T08:31:10;17.70;1.00
16532;DHT22;66872;63.142;14.482;2023-04-03T08:33:38;17.70;1.00
16532;DHT22;66872;63.142;14.482;2023-04-03T08:36:15;17.70;1.00
16532;DHT22;66872;63.142;14.482;2023-04-03T08:38:41;17.70;1.00
16532;DHT22;66872;63.142;14.482;2023-04-03T08:41:52;17.70;1.00
16532;DHT22;66872;63.142;14.482;2023-04-03T08:49:49;17.60;1.00
16532;DHT22;66872;63.142;14.482;2023-04-03T08:54:59;17.60;1.00
16532;DHT22;66872;63.142;14.482;2023-04-03T08:57:39;17.60;1.00
16532;DHT22;66872;63.142;14.482;2023-04-03T09:00:41;17.60;1.00
16532;DHT22;66872;63.142;14.482;2023-04-03T09:03:13;17.50;1.00
16532;DHT22;66872;63.142;14.482;2023-04-03T09:08:29;17.50;1.00
16532;DHT22;66872;63.142;14.482;2023-04-03T09:13:37;17.50;1.00
16532;DHT22;66872;63.142;14.482;2023-04-03T09:16:20;17.50;1.00
16532;DHT22;66872;63.142;14.482;2023-04-03T09:18:53;17.50;1.00
16532;DHT22;66872;63.142;14.482;2023-04-03T09:21:31;17.50;1.00
16532;DHT22;66872;63.142;14.482;2023-04-03T09:24:01;17.50;1.00
16532;DHT22;66872;63.142;14.482;2023-04-03T09:26:34;17.50;1.00
16532;DHT22;66872;63.142;14.482;2023-04-03T09:29:06;17.40;1.00
16532;DHT22;66872;63.142;14.482;2023-04-03T09:31:42;17.40;1.00
16532;DHT22;66872;63.142;14.482;2023-04-03T09:34:22;17.40;1.00
16532;DHT22;66872;63.142;14.482;2023-04-03T09:36:51;17.40;1.00
16532;DHT22;66872;63.142;14.482;2023-04-03T09:39:28;17.40;1.00
16532;DHT22;66872;63.142;14.482;2023-04-03T09:42:01;17.40;1.00
16532;DHT22;66872;63.142;14.482;2023-04-03T09:44:33;17.40;1.00
16532;DHT22;66872;63.142;14.482;2023-04-03T09:47:00;17.40;1.00
16532;DHT22;66872;63.142;14.482;2023-04-03T09:49:42;17.40;1.00
16532;DHT22;66872;63.142;14.482;2023-04-03T09:52:23;17.40;1.00
16532;DHT22;66872;63.142;14.482;2023-04-03T09:54:50;17.40;1.00
16532;DHT22;66872;63.142;14.482;2023-04-03T09:57:15;17.40;1.00
16532;DHT22;66872;63.142;14.482;2023-04-03T09:59:46;17.40;1.00
16532;DHT22;66872;63.142;14.482;2023-04-03T10:02:36;17.40;1.00
16532;DHT22;66872;63.142;14.482;2023-04-03T10:05:05;17.40;1.00
16532;DHT22;66872;63.142;14.482;2023-04-03T10:07:49;17.40;1.00
16532;DHT22;66872;63.142;14.482;2023-04-03T10:12:40;17.50;1.00
16532;DHT22;66872;63.142;14.482;2023-04-03T10:15:16;17.50;1.00
16532;DHT22;66872;63.142;14.482;2023-04-03T10:17:57;17.50;1.00
16532;DHT22;66872;63.142;14.482;2023-04-03T10:20:37;17.60;1.00
16532;DHT22;66872;63.142;14.482;2023-04-03T10:23:24;17.60;1.00
16532;DHT22;66872;63.142;14.482;2023-04-03T10:28:57;17.70;1.00
16532;DHT22;66872;63.142;14.482;2023-04-03T10:34:24;17.60;1.00
16532;DHT22;66872;63.142;14.482;2023-04-03T10:37:25;17.50;1.00
16532;DHT22;66872;63.142;14.482;2023-04-03T10:42:31;17.60;1.00
16532;DHT22;66872;63.142;14.482;2023-04-03T10:45:29;17.50;1.00
16532;DHT22;66872;63.142;14.482;2023-04-03T10:48:11;17.50;1.00
16532;DHT22;66872;63.142;14.482;2023-04-03T10:58:58;17.50;1.00
16532;DHT22;66872;63.142;14.482;2023-04-03T11:01:32;17.40;1.00
16532;DHT22;66872;63.142;14.482;2023-04-03T11:04:00;17.40;1.00
16532;DHT22;66872;63.142;14.482;2023-04-03T11:06:39;17.50;1.00
16532;DHT22;66872;63.142;14.482;2023-04-03T11:11:45;17.40;1.00
16532;DHT22;66872;63.142;14.482;2023-04-03T11:14:31;17.40;1.00
16532;DHT22;66872;63.142;14.482;2023-04-03T11:22:35;17.30;1.00
16532;DHT22;66872;63.142;14.482;2023-04-03T11:30:23;17.30;1.00
16532;DHT22;66872;63.142;14.482;2023-04-03T11:33:19;17.30;1.00
16532;DHT22;66872;63.142;14.482;2023-04-03T11:35:53;17.30;1.00
16532;DHT22;66872;63.142;14.482;2023-04-03T11:38:28;17.30;1.00
16532;DHT22;66872;63.142;14.482;2023-04-03T11:40:57;17.30;1.00
16532;DHT22;66872;63.142;14.482;2023-04-03T11:43:30;17.20;1.00
16532;DHT22;66872;63.142;14.482;2023-04-03T11:45:57;17.20;1.00
16532;DHT22;66872;63.142;14.482;2023-04-03T11:50:54;17.20;1.00
16532;DHT22;66872;63.142;14.482;2023-04-03T11:53:37;17.20;1.00
16532;DHT22;66872;63.142;14.482;2023-04-03T11:58:34;17.20;1.00
16532;DHT22;66872;63.142;14.482;2023-04-03T12:16:07;17.20;1.00
16532;DHT22;66872;63.142;14.482;2023-04-03T12:21:21;17.20;1.00
16532;DHT22;66872;63.142;14.482;2023-04-03T12:29:23;17.20;1.00
16532;DHT22;66872;63.142;14.482;2023-04-03T12:45:30;17.20;1.00
16532;DHT22;66872;63.142;14.482;2023-04-03T12:48:13;17.20;1.00
16532;DHT22;66872;63.142;14.482;2023-04-03T12:50:40;17.20;1.00
16532;DHT22;66872;63.142;14.482;2023-04-03T12:53:33;17.30;1.00
16532;DHT22;66872;63.142;14.482;2023-04-03T12:56:19;17.30;1.00
16532;DHT22;66872;63.142;14.482;2023-04-03T12:58:46;17.30;1.00
16532;DHT22;66872;63.142;14.482;2023-04-03T13:01:14;17.30;1.00
16532;DHT22;66872;63.142;14.482;2023-04-03T13:03:45;17.30;1.00
16532;DHT22;66872;63.142;14.482;2023-04-03T13:06:24;17.30;1.00
16532;DHT22;66872;63.142;14.482;2023-04-03T13:08:53;17.40;1.00
16532;DHT22;66872;63.142;14.482;2023-04-03T13:11:20;17.40;1.00
16532;DHT22;66872;63.142;14.482;2023-04-03T13:14:00;17.40;1.00
16532;DHT22;66872;63.142;14.482;2023-04-03T13:16:27;17.40;1.00
16532;DHT22;66872;63.142;14.482;2023-04-03T13:18:54;17.40;1.00
16532;DHT22;66872;63.142;14.482;2023-04-03T13:21:26;17.40;1.00
16532;DHT22;66872;63.142;14.482;2023-04-03T13:23:56;17.40;1.00
16532;DHT22;66872;63.142;14.482;2023-04-03T13:26:25;17.40;1.00
16532;DHT22;66872;63.142;14.482;2023-04-03T13:28:52;17.40;1.00
16532;DHT22;66872;63.142;14.482;2023-04-03T13:31:22;17.40;1.00
16532;DHT22;66872;63.142;14.482;2023-04-03T13:36:38;17.40;1.00
16532;DHT22;66872;63.142;14.482;2023-04-03T13:39:28;17.40;1.00
16532;DHT22;66872;63.142;14.482;2023-04-03T13:41:55;17.40;1.00
16532;DHT22;66872;63.142;14.482;2023-04-03T13:46:59;17.40;1.00
16532;DHT22;66872;63.142;14.482;2023-04-03T13:52:53;17.30;1.00
16532;DHT22;66872;63.142;14.482;2023-04-03T13:58:16;17.30;1.00
16532;DHT22;66872;63.142;14.482;2023-04-03T14:00:47;17.30;1.00
16532;DHT22;66872;63.142;14.482;2023-04-03T14:03:33;17.30;1.00
16532;DHT22;66872;63.142;14.482;2023-04-03T14:05:59;17.30;1.00
16532;DHT22;66872;63.142;14.482;2023-04-03T14:08:25;17.40;1.00
16532;DHT22;66872;63.142;14.482;2023-04-03T14:10:51;17.40;1.00
16532;DHT22;66872;63.142;14.482;2023-04-03T14:13:18;17.40;1.00
16532;DHT22;66872;63.142;14.482;2023-04-03T14:15:46;17.40;1.00
16532;DHT22;66872;63.142;14.482;2023-04-03T14:18:15;17.40;1.00
16532;DHT22;66872;63.142;14.482;2023-04-03T14:20:42;17.40;1.00
16532;DHT22;66872;63.142;14.482;2023-04-03T14:23:08;17.40;1.00
16532;DHT22;66872;63.142;14.482;2023-04-03T14:25:35;17.40;1.00
16532;DHT22;66872;63.142;14.482;2023-04-03T14:28:01;17.40;1.00
16532;DHT22;66872;63.142;14.482;2023-04-03T14:30:32;17.40;1.00
16532;DHT22;66872;63.142;14.482;2023-04-03T14:32:59;17.40;1.00
16532;DHT22;66872;63.142;14.482;2023-04-03T14:35:26;17.40;1.00
16532;DHT22;66872;63.142;14.482;2023-04-03T14:37:53;17.40;1.00
16532;DHT22;66872;63.142;14.482;2023-04-03T14:40:23;17.30;1.00
16532;DHT22;66872;63.142;14.482;2023-04-03T14:42:49;17.30;1.00
16532;DHT22;66872;63.142;14.482;2023-04-03T14:45:16;17.30;1.00
16532;DHT22;66872;63.142;14.482;2023-04-03T14:47:52;17.30;1.00
16532;DHT22;66872;63.142;14.482;2023-04-03T14:50:21;17.20;1.00
16532;DHT22;66872;63.142;14.482;2023-04-03T14:52:49;17.20;1.00
16532;DHT22;66872;63.142;14.482;2023-04-03T14:55:17;17.20;1.00
16532;DHT22;66872;63.142;14.482;2023-04-03T14:57:43;17.20;1.00
16532;DHT22;66872;63.142;14.482;2023-04-03T15:00:18;17.20;1.00
16532;DHT22;66872;63.142;14.482;2023-04-03T15:02:44;17.10;1.00
16532;DHT22;66872;63.142;14.482;2023-04-03T15:05:11;17.10;1.00
16532;DHT22;66872;63.142;14.482;2023-04-03T15:07:42;17.10;1.00
16532;DHT22;66872;63.142;14.482;2023-04-03T15:10:16;17.10;1.00
16532;DHT22;66872;63.142;14.482;2023-04-03T15:12:43;17.00;1.00
16532;DHT22;66872;63.142;14.482;2023-04-03T15:15:10;17.00;1.00
16532;DHT22;66872;63.142;14.482;2023-04-03T15:17:36;17.00;1.00
16532;DHT22;66872;63.142;14.482;2023-04-03T15:20:03;17.00;1.00
16532;DHT22;66872;63.142;14.482;2023-04-03T15:22:29;17.00;1.00
16532;DHT22;66872;63.142;14.482;2023-04-03T15:24:54;17.00;1.00
16532;DHT22;66872;63.142;14.482;2023-04-03T15:27:20;17.00;1.00
16532;DHT22;66872;63.142;14.482;2023-04-03T15:29:46;16.90;1.00
16532;DHT22;66872;63.142;14.482;2023-04-03T15:32:12;17.00;1.00
16532;DHT22;66872;63.142;14.482;2023-04-03T15:34:38;16.90;1.00
16532;DHT22;66872;63.142;14.482;2023-04-03T15:37:04;16.90;1.00
16532;DHT22;66872;63.142;14.482;2023-04-03T15:39:31;16.90;1.00
16532;DHT22;66872;63.142;14.482;2023-04-03T15:41:56;16.90;1.00
16532;DHT22;66872;63.142;14.482;2023-04-03T15:44:25;16.90;1.00
16532;DHT22;66872;63.142;14.482;2023-04-03T15:46:51;16.90;1.00
16532;DHT22;66872;63.142;14.482;2023-04-03T15:49:18;16.90;1.00
16532;DHT22;66872;63.142;14.482;2023-04-03T15:51:44;16.90;1.00
16532;DHT22;66872;63.142;14.482;2023-04-03T15:54:10;16.90;1.00
16532;DHT22;66872;63.142;14.482;2023-04-03T15:56:35;16.90;1.00
16532;DHT22;66872;63.142;14.482;2023-04-03T15:59:01;16.90;1.00
16532;DHT22;66872;63.142;14.482;2023-04-03T16:01:27;16.80;1.00
16532;DHT22;66872;63.142;14.482;2023-04-03T16:03:53;16.80;1.00
16532;DHT22;66872;63.142;14.482;2023-04-03T16:06:19;16.80;1.00
16532;DHT22;66872;63.142;14.482;2023-04-03T16:08:46;16.80;1.00
16532;DHT22;66872;63.142;14.482;2023-04-03T16:11:13;16.80;1.00
16532;DHT22;66872;63.142;14.482;2023-04-03T16:13:39;16.80;1.00
16532;DHT22;66872;63.142;14.482;2023-04-03T16:16:05;16.70;1.00
16532;DHT22;66872;63.142;14.482;2023-04-03T16:18:34;16.70;1.00
16532;DHT22;66872;63.142;14.482;2023-04-03T16:21:00;16.70;1.00
16532;DHT22;66872;63.142;14.482;2023-04-03T16:23:26;16.70;1.00
16532;DHT22;66872;63.142;14.482;2023-04-03T16:25:52;16.70;1.00
16532;DHT22;66872;63.142;14.482;2023-04-03T16:28:18;16.70;1.00
16532;DHT22;66872;63.142;14.482;2023-04-03T16:30:44;16.70;1.00
16532;DHT22;66872;63.142;14.482;2023-04-03T16:33:12;16.70;1.00
16532;DHT22;66872;63.142;14.482;2023-04-03T16:35:38;16.60;1.00
16532;DHT22;66872;63.142;14.482;2023-04-03T16:38:04;16.60;1.00
16532;DHT22;66872;63.142;14.482;2023-04-03T16:40:30;16.60;1.00
16532;DHT22;66872;63.142;14.482;2023-04-03T16:42:55;16.50;1.00
16532;DHT22;66872;63.142;14.482;2023-04-03T16:45:21;16.50;1.00
16532;DHT22;66872;63.142;14.482;2023-04-03T16:47:47;16.50;1.00
16532;DHT22;66872;63.142;14.482;2023-04-03T16:50:13;16.50;1.00
16532;DHT22;66872;63.142;14.482;2023-04-03T16:52:39;16.50;1.00
16532;DHT22;66872;63.142;14.482;2023-04-03T16:55:05;16.40;1.00
16532;DHT22;66872;63.142;14.482;2023-04-03T16:57:30;16.40;1.00
16532;DHT22;66872;63.142;14.482;2023-04-03T16:59:56;16.40;1.00
16532;DHT22;66872;63.142;14.482;2023-04-03T17:02:23;16.40;1.00
16532;DHT22;66872;63.142;14.482;2023-04-03T17:04:53;16.30;1.00
16532;DHT22;66872;63.142;14.482;2023-04-03T17:07:20;16.30;1.00
16532;DHT22;66872;63.142;14.482;2023-04-03T17:09:46;16.30;1.00
16532;DHT22;66872;63.142;14.482;2023-04-03T17:12:12;16.30;1.00
16532;DHT22;66872;63.142;14.482;2023-04-03T17:14:38;16.20;1.00
16532;DHT22;66872;63.142;14.482;2023-04-03T17:17:04;16.20;1.00
16532;DHT22;66872;63.142;14.482;2023-04-03T17:19:30;16.20;1.00
16532;DHT22;66872;63.142;14.482;2023-04-03T17:21:56;16.20;1.00
16532;DHT22;66872;63.142;14.482;2023-04-03T17:24:22;16.20;1.00